createdAt,value
2023-04-01T00:01:16.184Z,68.20
2023-04-01T00:03:44.880Z,68.03
2023-04-01T00:06:18.217Z,68.23
2023-04-01T00:08:46.667Z,67.82
2023-04-01T00:11:16.026Z,69.07
2023-04-01T00:13:45.076Z,68.84
2023-04-01T00:16:21.655Z,68.19
2023-04-01T00:18:51.859Z,68.42
2023-04-01T00:21:21.812Z,68.65
2023-04-01T00:23:52.112Z,68.18
2023-04-01T00:26:22.932Z,67.71
2023-04-01T00:28:51.663Z,68.11
2023-04-01T00:31:38.050Z,67.96
2023-04-01T00:34:06.076Z,67.72
2023-04-01T00:36:33.940Z,67.76
2023-04-01T00:39:01.974Z,67.68
2023-04-01T00:41:29.849Z,68.27
2023-04-01T00:44:20.901Z,66.95
2023-04-01T00:46:49.424Z,67.36
2023-04-01T00:49:21.630Z,68.81
2023-04-01T00:51:53.244Z,68.74
2023-04-01T00:54:23.724Z,66.68
2023-04-01T00:57:18.827Z,69.66
2023-04-01T00:59:51.200Z,66.61
2023-04-01T01:02:19.681Z,68.41
2023-04-01T01:04:48.235Z,68.09
2023-04-01T01:07:27.986Z,68.04
2023-04-01T01:10:21.710Z,68.38
2023-04-01T01:13:18.038Z,67.77
2023-04-01T01:16:00.556Z,67.42
2023-04-01T01:18:50.375Z,67.83
2023-04-01T01:21:44.234Z,67.76
2023-04-01T01:24:30.556Z,67.42
2023-04-01T01:27:09.054Z,69.03
2023-04-01T01:29:43.669Z,68.15
2023-04-01T01:32:30.051Z,68.12
2023-04-01T01:35:16.523Z,67.17
2023-04-01T01:37:47.196Z,66.47
2023-04-01T01:40:16.927Z,65.02
2023-04-01T01:42:51.602Z,60.46
2023-04-01T01:45:22.672Z,63.85
2023-04-01T01:47:53.012Z,63.76
2023-04-01T01:50:22.345Z,64.88
2023-04-01T01:52:50.510Z,64.39
2023-04-01T01:55:46.666Z,63.54
2023-04-01T01:58:18.077Z,63.72
2023-04-01T02:01:04.175Z,63.72
2023-04-01T02:03:37.128Z,63.79
2023-04-01T02:06:09.381Z,63.03
2023-04-01T02:09:05.780Z,64.70
2023-04-01T02:11:39.981Z,64.71
2023-04-01T02:14:15.129Z,64.77
2023-04-01T02:16:59.614Z,65.12
2023-04-01T02:19:34.768Z,64.71
2023-04-01T02:22:05.591Z,63.38
2023-04-01T02:24:39.329Z,62.88
2023-04-01T02:27:07.788Z,63.00
2023-04-01T02:29:36.109Z,60.18
2023-04-01T02:32:10.209Z,60.08
2023-04-01T02:34:41.412Z,59.69
2023-04-01T02:37:09.648Z,59.50
2023-04-01T02:39:37.846Z,59.61
2023-04-01T02:42:06.172Z,58.93
2023-04-01T02:44:34.212Z,59.92
2023-04-01T02:47:02.515Z,59.14
2023-04-01T02:49:30.588Z,58.97
2023-04-01T02:51:58.536Z,59.61
2023-04-01T02:56:21.399Z,59.28
2023-04-01T02:58:49.529Z,58.76
2023-04-01T03:01:17.619Z,60.38
2023-04-01T03:03:45.738Z,57.86
2023-04-01T03:06:15.753Z,58.90
2023-04-01T03:08:44.282Z,58.40
2023-04-01T03:11:13.235Z,58.58
2023-04-01T03:13:41.348Z,58.80
2023-04-01T03:16:10.576Z,58.78
2023-04-01T03:18:38.509Z,59.04
2023-04-01T03:21:22.060Z,59.59
2023-04-01T03:23:51.748Z,59.29
2023-04-01T03:26:19.944Z,59.26
2023-04-01T03:28:47.952Z,59.06
2023-04-01T03:31:17.322Z,58.47
2023-04-01T03:33:52.349Z,58.55
2023-04-01T03:36:20.577Z,59.52
2023-04-01T03:38:48.811Z,59.46
2023-04-01T03:41:22.993Z,59.21
2023-04-01T03:43:51.478Z,59.56
2023-04-01T03:46:20.198Z,59.52
2023-04-01T03:48:48.944Z,59.80
2023-04-01T03:51:16.892Z,59.54
2023-04-01T03:53:45.054Z,59.98
2023-04-01T03:56:13.294Z,60.23
2023-04-01T03:58:41.602Z,60.17
2023-04-01T04:01:22.338Z,59.92
2023-04-01T04:03:53.758Z,59.83
2023-04-01T04:06:24.698Z,58.59
2023-04-01T04:08:53.933Z,58.08
2023-04-01T04:11:23.532Z,58.14
2023-04-01T04:13:54.419Z,59.43
2023-04-01T04:16:23.841Z,58.78
2023-04-01T04:18:58.061Z,59.60
2023-04-01T04:21:25.992Z,60.31
2023-04-01T04:23:54.015Z,61.10
2023-04-01T04:26:22.652Z,60.37
2023-04-01T04:28:57.401Z,60.58
2023-04-01T04:31:26.944Z,61.35
2023-04-01T04:33:57.273Z,61.54
2023-04-01T04:36:25.459Z,61.54
2023-04-01T04:38:54.545Z,61.51
2023-04-01T04:41:23.422Z,61.33
2023-04-01T04:43:55.740Z,61.42
2023-04-01T04:46:25.608Z,61.19
2023-04-01T04:49:00.026Z,61.30
2023-04-01T04:51:28.121Z,60.94
2023-04-01T04:53:55.993Z,60.80
2023-04-01T04:56:34.363Z,61.91
2023-04-01T04:59:07.722Z,60.45
2023-04-01T05:01:47.128Z,58.92
2023-04-01T05:04:15.777Z,58.21
2023-04-01T05:06:46.275Z,58.09
2023-04-01T05:09:14.883Z,57.50
2023-04-01T05:11:43.370Z,57.63
2023-04-01T05:14:18.363Z,57.05
2023-04-01T05:16:55.757Z,57.07
2023-04-01T05:19:23.818Z,57.14
2023-04-01T05:21:51.763Z,56.78
2023-04-01T05:24:19.794Z,57.06
2023-04-01T05:26:48.765Z,57.00
2023-04-01T05:29:17.114Z,57.03
2023-04-01T05:31:48.503Z,56.88
2023-04-01T05:34:17.161Z,57.59
2023-04-01T05:36:45.655Z,57.18
2023-04-01T05:39:14.000Z,56.97
2023-04-01T05:41:42.615Z,57.17
2023-04-01T05:44:13.639Z,56.97
2023-04-01T05:46:42.105Z,56.71
2023-04-01T05:49:29.056Z,57.93
2023-04-01T05:51:58.341Z,56.45
2023-04-01T05:54:27.265Z,57.24
2023-04-01T05:56:55.394Z,56.69
2023-04-01T05:59:23.917Z,56.50
2023-04-01T06:01:52.735Z,56.34
2023-04-01T06:04:21.997Z,54.73
2023-04-01T06:06:49.993Z,53.53
2023-04-01T06:09:20.295Z,52.07
2023-04-01T06:12:32.976Z,50.08
2023-04-01T06:15:21.305Z,43.86
2023-04-01T06:18:32.209Z,41.20
2023-04-01T06:21:09.675Z,42.91
2023-04-01T06:24:06.535Z,46.29
2023-04-01T06:27:10.849Z,46.14
2023-04-01T06:29:49.031Z,46.54
2023-04-01T06:32:24.472Z,47.13
2023-04-01T06:35:31.496Z,47.35
2023-04-01T06:38:54.927Z,46.25
2023-04-01T06:41:40.769Z,46.47
2023-04-01T06:44:41.162Z,46.07
2023-04-01T06:47:51.918Z,44.03
2023-04-01T06:51:09.125Z,41.06
2023-04-01T06:54:06.366Z,40.78
2023-04-01T06:57:25.172Z,41.96
2023-04-01T06:59:58.598Z,43.45
2023-04-01T07:02:40.705Z,44.16
2023-04-01T07:05:12.999Z,44.35
2023-04-01T07:07:49.700Z,45.53
2023-04-01T07:10:45.208Z,45.72
2023-04-01T07:13:25.757Z,45.51
2023-04-01T07:16:17.643Z,46.44
2023-04-01T07:18:58.092Z,47.17
2023-04-01T07:21:43.312Z,47.64
2023-04-01T07:24:34.602Z,47.59
2023-04-01T07:27:14.414Z,47.72
2023-04-01T07:29:44.201Z,47.46
2023-04-01T07:32:23.053Z,46.92
2023-04-01T07:35:19.891Z,47.50
2023-04-01T07:38:26.795Z,48.69
2023-04-01T07:41:11.294Z,49.02
2023-04-01T07:44:05.743Z,48.14
2023-04-01T07:47:05.273Z,45.75
2023-04-01T07:49:44.543Z,42.06
2023-04-01T07:52:27.700Z,42.72
2023-04-01T07:55:02.709Z,41.41
2023-04-01T07:57:52.024Z,40.31
2023-04-01T08:00:29.556Z,39.10
2023-04-01T08:03:08.999Z,38.09
2023-04-01T08:05:37.953Z,39.51
2023-04-01T08:08:33.377Z,40.79
2023-04-01T08:11:43.766Z,41.83
2023-04-01T08:15:00.472Z,42.98
2023-04-01T08:18:06.017Z,43.65
2023-04-01T08:20:44.137Z,44.24
2023-04-01T08:23:21.034Z,43.82
2023-04-01T08:25:58.264Z,43.88
2023-04-01T08:28:38.931Z,44.31
2023-04-01T08:31:24.558Z,43.87
2023-04-01T08:33:55.962Z,42.87
2023-04-01T08:36:32.640Z,40.32
2023-04-01T08:39:30.152Z,39.92
2023-04-01T08:42:14.020Z,40.54
2023-04-01T08:45:13.834Z,39.56
2023-04-01T08:47:59.741Z,37.86
2023-04-01T08:50:58.980Z,37.31
2023-04-01T08:53:52.396Z,34.86
2023-04-01T08:56:46.054Z,32.39
2023-04-01T08:59:33.471Z,30.89
2023-04-01T09:02:22.411Z,27.94
2023-04-01T09:05:36.052Z,28.15
2023-04-01T09:08:29.341Z,26.56
2023-04-01T09:11:23.313Z,25.90
2023-04-01T09:14:13.011Z,26.81
2023-04-01T09:17:38.184Z,29.85
2023-04-01T09:20:48.055Z,31.94
2023-04-01T09:23:25.565Z,35.05
2023-04-01T09:26:09.190Z,34.71
2023-04-01T09:29:03.702Z,35.96
2023-04-01T09:31:54.831Z,37.01
2023-04-01T09:34:56.909Z,33.93
2023-04-01T09:37:49.572Z,31.95
2023-04-01T09:40:32.768Z,28.19
2023-04-01T09:43:26.510Z,27.36
2023-04-01T09:46:36.225Z,27.45
2023-04-01T09:49:25.168Z,28.05
2023-04-01T09:52:19.637Z,28.62
2023-04-01T09:54:56.612Z,29.11
2023-04-01T09:57:48.286Z,30.53
2023-04-01T10:01:01.023Z,31.11
2023-04-01T10:03:57.094Z,31.67
2023-04-01T10:06:57.414Z,32.45
2023-04-01T10:09:28.972Z,34.04
2023-04-01T10:12:09.389Z,35.06
2023-04-01T10:15:03.171Z,34.39
2023-04-01T10:17:53.641Z,35.69
2023-04-01T10:20:42.703Z,36.29
2023-04-01T10:23:23.365Z,35.95
2023-04-01T10:26:37.615Z,36.08
2023-04-01T10:30:11.351Z,37.43
2023-04-01T10:32:58.160Z,36.92
2023-04-01T10:35:45.368Z,38.03
2023-04-01T10:38:53.756Z,37.60
2023-04-01T10:42:01.187Z,37.50
2023-04-01T10:45:10.043Z,39.40
2023-04-01T10:48:14.786Z,40.22
2023-04-01T10:51:02.982Z,40.03
2023-04-01T10:54:00.153Z,40.60
2023-04-01T10:57:17.727Z,40.61
2023-04-01T11:00:31.385Z,41.29
2023-04-01T11:03:56.512Z,41.25
2023-04-01T11:07:18.587Z,40.63
2023-04-01T11:10:20.227Z,41.49
2023-04-01T11:13:30.042Z,42.14
2023-04-01T11:16:35.746Z,41.99
2023-04-01T11:19:27.499Z,42.50
2023-04-01T11:22:12.592Z,42.87
2023-04-01T11:24:57.517Z,43.56
2023-04-01T11:27:45.735Z,43.42
2023-04-01T11:30:42.395Z,44.44
2023-04-01T11:33:21.322Z,44.59
2023-04-01T11:36:03.618Z,45.15
2023-04-01T11:39:09.300Z,45.77
2023-04-01T11:42:16.680Z,45.47
2023-04-01T11:45:35.575Z,46.67
2023-04-01T11:48:34.578Z,47.10
2023-04-01T11:51:24.415Z,46.74
2023-04-01T11:54:25.728Z,48.89
2023-04-01T11:57:05.245Z,51.82
2023-04-01T11:59:51.987Z,57.52
2023-04-01T12:02:32.317Z,60.49
2023-04-01T12:05:27.897Z,65.03
2023-04-01T12:08:23.281Z,67.55
2023-04-01T12:11:18.947Z,70.17
2023-04-01T12:14:02.472Z,71.21
2023-04-01T12:16:52.370Z,72.99
2023-04-01T12:19:53.512Z,73.35
2023-04-01T12:22:42.975Z,73.46
2023-04-01T12:25:23.407Z,74.56
2023-04-01T12:28:24.596Z,72.27
2023-04-01T12:31:38.198Z,73.39
2023-04-01T12:34:30.844Z,74.85
2023-04-01T12:37:15.970Z,74.19
2023-04-01T12:39:47.234Z,74.72
2023-04-01T12:42:40.920Z,75.65
2023-04-01T12:45:30.109Z,76.15
2023-04-01T12:48:34.794Z,73.89
2023-04-01T12:51:16.977Z,74.72
2023-04-01T12:54:03.407Z,76.57
2023-04-01T12:57:06.169Z,78.22
2023-04-01T12:59:34.739Z,78.13
2023-04-01T13:02:32.123Z,78.38
2023-04-01T13:05:34.564Z,79.89
2023-04-01T13:08:24.458Z,78.57
2023-04-01T13:11:11.739Z,79.50
2023-04-01T13:13:39.683Z,79.65
2023-04-01T13:16:22.118Z,80.08
2023-04-01T13:19:16.236Z,79.33
2023-04-01T13:21:55.954Z,78.87
2023-04-01T13:24:41.115Z,79.81
2023-04-01T13:27:09.572Z,80.07
2023-04-01T13:29:46.934Z,79.01
2023-04-01T13:32:56.402Z,81.38
2023-04-01T13:35:47.672Z,81.36
2023-04-01T13:38:34.902Z,81.03
2023-04-01T13:41:31.187Z,80.75
2023-04-01T13:44:24.543Z,79.20
2023-04-01T13:47:11.356Z,81.33
2023-04-01T13:50:05.262Z,76.96
2023-04-01T13:52:39.384Z,77.70
2023-04-01T13:55:14.238Z,78.68
2023-04-01T13:57:54.021Z,77.21
2023-04-01T14:00:25.565Z,77.90
2023-04-01T14:03:30.330Z,76.82
2023-04-01T14:06:18.902Z,77.28
2023-04-01T14:09:01.207Z,74.73
2023-04-01T14:11:53.997Z,78.46
2023-04-01T14:14:49.712Z,78.51
2023-04-01T14:17:51.770Z,76.47
2023-04-01T14:20:40.326Z,78.04
2023-04-01T14:23:38.797Z,81.45
2023-04-01T14:26:37.143Z,78.45
2023-04-01T14:29:11.569Z,76.65
2023-04-01T14:31:48.200Z,76.03
2023-04-01T14:34:22.518Z,76.95
2023-04-01T14:37:14.675Z,77.05
2023-04-01T14:40:22.508Z,77.40
2023-04-01T14:43:00.629Z,77.47
2023-04-01T14:45:49.400Z,76.43
2023-04-01T14:48:53.288Z,78.24
2023-04-01T14:51:36.326Z,74.73
2023-04-01T14:54:24.253Z,76.70
2023-04-01T14:57:13.758Z,75.37
2023-04-01T14:59:50.145Z,73.30
2023-04-01T15:02:38.980Z,74.00
2023-04-01T15:05:14.266Z,74.24
2023-04-01T15:08:30.186Z,73.35
2023-04-01T15:11:40.183Z,74.59
2023-04-01T15:14:43.751Z,73.54
2023-04-01T15:17:24.509Z,74.26
2023-04-01T15:20:34.408Z,72.39
2023-04-01T15:23:29.534Z,64.91
2023-04-01T15:26:38.651Z,72.18
2023-04-01T15:29:33.216Z,67.62
2023-04-01T15:32:18.922Z,63.37
2023-04-01T15:35:07.972Z,59.33
2023-04-01T15:37:50.113Z,60.86
2023-04-01T15:40:18.558Z,57.82
2023-04-01T15:42:57.465Z,57.76
2023-04-01T15:45:25.686Z,58.89
2023-04-01T15:48:25.166Z,57.03
2023-04-01T15:50:53.617Z,57.95
2023-04-01T15:54:06.887Z,58.54
2023-04-01T15:56:56.817Z,60.13
2023-04-01T15:59:54.071Z,58.11
2023-04-01T16:02:52.504Z,59.18
2023-04-01T16:05:27.856Z,59.16
2023-04-01T16:08:21.468Z,59.47
2023-04-01T16:11:25.042Z,62.81
2023-04-01T16:14:04.219Z,63.50
2023-04-01T16:16:38.528Z,66.41
2023-04-01T16:19:33.353Z,66.48
2023-04-01T16:22:15.522Z,68.64
2023-04-01T16:24:55.366Z,71.43
2023-04-01T16:27:24.216Z,73.84
2023-04-01T16:29:55.319Z,76.13
2023-04-01T16:33:04.078Z,77.50
2023-04-01T16:35:45.383Z,75.85
2023-04-01T16:38:31.651Z,79.51
2023-04-01T16:41:18.126Z,80.15
2023-04-01T16:43:57.236Z,80.31
2023-04-01T16:46:40.633Z,80.56
2023-04-01T16:49:31.566Z,80.21
2023-04-01T16:52:15.461Z,79.93
2023-04-01T16:54:59.910Z,80.56
2023-04-01T16:57:39.443Z,80.46
2023-04-01T17:00:25.391Z,78.49
2023-04-01T17:03:13.425Z,79.46
2023-04-01T17:06:07.810Z,77.94
2023-04-01T17:09:03.934Z,78.10
2023-04-01T17:11:42.926Z,77.52
2023-04-01T17:14:45.647Z,77.25
2023-04-01T17:17:16.767Z,75.39
2023-04-01T17:20:02.400Z,75.67
2023-04-01T17:22:53.622Z,73.78
2023-04-01T17:25:55.032Z,75.04
2023-04-01T17:28:38.141Z,73.87
2023-04-01T17:31:50.781Z,72.97
2023-04-01T17:34:44.457Z,72.98
2023-04-01T17:37:52.732Z,72.92
2023-04-01T17:40:42.828Z,72.44
2023-04-01T17:43:29.548Z,74.07
2023-04-01T17:46:26.404Z,71.00
2023-04-01T17:49:29.482Z,70.18
2023-04-01T17:52:08.370Z,69.83
2023-04-01T17:54:49.585Z,69.89
2023-04-01T17:57:48.622Z,70.33
2023-04-01T18:00:32.242Z,69.31
2023-04-01T18:03:21.745Z,70.64
2023-04-01T18:05:56.516Z,68.76
2023-04-01T18:08:45.901Z,69.18
2023-04-01T18:11:47.398Z,69.38
2023-04-01T18:14:33.528Z,69.70
2023-04-01T18:17:25.118Z,69.48
2023-04-01T18:20:09.251Z,70.95
2023-04-01T18:23:01.554Z,69.75
2023-04-01T18:25:38.089Z,70.73
2023-04-01T18:28:22.741Z,68.89
2023-04-01T18:31:03.379Z,67.47
2023-04-01T18:33:54.448Z,67.89
2023-04-01T18:36:34.945Z,68.68
2023-04-01T18:39:19.849Z,67.72
2023-04-01T18:42:06.869Z,69.53
2023-04-01T18:44:48.476Z,67.46
2023-04-01T18:47:25.726Z,68.13
2023-04-01T18:50:09.198Z,68.14
2023-04-01T18:52:47.100Z,68.09
2023-04-01T18:55:30.742Z,68.50
2023-04-01T18:58:26.802Z,68.17
2023-04-01T19:01:13.507Z,68.62
2023-04-01T19:04:00.806Z,69.20
2023-04-01T19:06:33.346Z,67.70
2023-04-01T19:09:20.337Z,67.92
2023-04-01T19:12:22.733Z,67.87
2023-04-01T19:15:28.616Z,69.45
2023-04-01T19:18:02.544Z,68.57
2023-04-01T19:20:58.797Z,69.81
2023-04-01T19:23:42.302Z,68.75
2023-04-01T19:26:23.430Z,68.44
2023-04-01T19:28:59.945Z,68.67
2023-04-01T19:31:52.158Z,68.32
2023-04-01T19:34:49.846Z,68.95
2023-04-01T19:37:27.208Z,69.23
2023-04-01T19:40:33.112Z,69.08
2023-04-01T19:43:04.309Z,69.25
2023-04-01T19:45:35.464Z,69.66
2023-04-01T19:48:30.607Z,69.71
2023-04-01T19:51:23.471Z,70.51
2023-04-01T19:53:59.843Z,70.33
2023-04-01T19:56:52.279Z,70.96
2023-04-01T19:59:25.769Z,70.65
2023-04-01T20:02:09.019Z,70.21
2023-04-01T20:04:56.256Z,71.11
2023-04-01T20:07:42.660Z,71.05
2023-04-01T20:10:19.301Z,71.19
2023-04-01T20:12:56.922Z,71.58
2023-04-01T20:15:42.556Z,71.94
2023-04-01T20:18:23.599Z,70.95
2023-04-01T20:21:36.423Z,70.80
2023-04-01T20:24:23.453Z,69.62
2023-04-01T20:27:01.810Z,69.21
2023-04-01T20:29:43.015Z,69.04
2023-04-01T20:32:14.490Z,69.37
2023-04-01T20:34:48.682Z,69.65
2023-04-01T20:37:41.790Z,69.47
2023-04-01T20:40:27.738Z,69.42
2023-04-01T20:43:16.772Z,68.02
2023-04-01T20:45:53.952Z,67.66
2023-04-01T20:48:41.093Z,64.69
2023-04-01T20:51:17.100Z,64.05
2023-04-01T20:54:07.324Z,62.73
2023-04-01T20:56:44.786Z,61.47
2023-04-01T20:59:40.194Z,62.10
2023-04-01T21:02:39.386Z,61.79
2023-04-01T21:05:29.914Z,62.44
2023-04-01T21:08:49.224Z,61.20
2023-04-01T21:11:56.172Z,59.15
2023-04-01T21:14:35.263Z,59.15
2023-04-01T21:17:43.392Z,60.78
2023-04-01T21:20:21.443Z,59.44
2023-04-01T21:23:02.033Z,59.88
2023-04-01T21:26:02.647Z,59.49
2023-04-01T21:28:41.678Z,59.48
2023-04-01T21:31:31.571Z,59.54
2023-04-01T21:34:07.924Z,60.56
2023-04-01T21:36:53.984Z,62.11
2023-04-01T21:40:05.098Z,62.43
2023-04-01T21:43:04.046Z,63.06
2023-04-01T21:45:38.147Z,64.09
2023-04-01T21:48:06.218Z,63.26
2023-04-01T21:50:43.484Z,62.20
2023-04-01T21:54:19.205Z,63.19
2023-04-01T21:56:59.020Z,62.33
2023-04-01T22:00:07.352Z,63.00
2023-04-01T22:03:06.063Z,63.32
2023-04-01T22:05:54.342Z,63.52
2023-04-01T22:08:34.513Z,63.31
2023-04-01T22:11:33.549Z,65.30
2023-04-01T22:14:12.503Z,65.11
2023-04-01T22:16:57.640Z,64.01
2023-04-01T22:20:12.264Z,65.21
2023-04-01T22:23:01.200Z,63.78
2023-04-01T22:25:46.586Z,63.85
2023-04-01T22:28:36.364Z,65.64
2023-04-01T22:31:06.685Z,66.60
2023-04-01T22:34:22.399Z,66.55
2023-04-01T22:37:34.597Z,66.11
2023-04-01T22:40:14.900Z,66.45
2023-04-01T22:42:46.115Z,66.34
2023-04-01T22:45:14.051Z,66.82
2023-04-01T22:48:13.684Z,68.29
2023-04-01T22:51:07.640Z,68.13
2023-04-01T22:53:47.531Z,68.63
2023-04-01T22:56:23.860Z,68.99
2023-04-01T22:59:28.109Z,69.58
2023-04-01T23:02:01.256Z,69.72
2023-04-01T23:04:34.796Z,69.94
2023-04-01T23:07:17.607Z,71.22
2023-04-01T23:09:45.769Z,71.10
2023-04-01T23:12:17.208Z,71.90
2023-04-01T23:14:55.072Z,71.76
2023-04-01T23:17:31.760Z,72.49
2023-04-01T23:20:02.182Z,73.18
2023-04-01T23:22:52.398Z,74.36
2023-04-01T23:25:43.674Z,74.21
2023-04-01T23:28:17.327Z,75.58
2023-04-01T23:30:45.289Z,75.01
2023-04-01T23:33:24.756Z,75.29
2023-04-01T23:36:11.776Z,75.55
2023-04-01T23:38:45.471Z,75.33
2023-04-01T23:41:31.019Z,75.29
2023-04-01T23:44:17.533Z,75.35
2023-04-01T23:46:48.916Z,74.31
2023-04-01T23:49:24.736Z,74.21
2023-04-01T23:52:04.810Z,74.65
2023-04-01T23:54:49.222Z,74.53
2023-04-01T23:57:23.621Z,74.45
